createdAt,value
2022-09-15T00:01:06.072Z,16.78
2022-09-15T00:04:21.610Z,16.75
2022-09-15T00:07:35.870Z,16.74
2022-09-15T00:10:54.415Z,16.75
2022-09-15T00:14:09.943Z,16.76
2022-09-15T00:17:23.844Z,16.77
2022-09-15T00:20:38.419Z,16.76
2022-09-15T00:23:52.815Z,16.75
2022-09-15T00:27:06.321Z,16.76
2022-09-15T00:30:20.489Z,16.79
2022-09-15T00:33:34.001Z,16.79
2022-09-15T00:36:47.417Z,16.80
2022-09-15T00:40:01.767Z,16.79
2022-09-15T00:43:17.780Z,16.76
2022-09-15T00:46:33.677Z,16.72
2022-09-15T00:49:47.879Z,16.69
2022-09-15T00:53:03.325Z,16.71
2022-09-15T00:56:18.137Z,16.68
2022-09-15T00:59:34.157Z,16.66
2022-09-15T01:02:49.206Z,16.66
2022-09-15T01:06:05.621Z,16.69
2022-09-15T01:09:23.089Z,16.65
2022-09-15T01:12:36.569Z,16.65
2022-09-15T01:15:55.272Z,16.68
2022-09-15T01:19:14.646Z,16.71
2022-09-15T01:22:41.035Z,16.74
2022-09-15T01:26:09.253Z,16.70
2022-09-15T01:29:50.134Z,16.63
2022-09-15T01:33:13.627Z,16.66
2022-09-15T01:36:30.673Z,16.63
2022-09-15T01:39:47.077Z,16.60
2022-09-15T01:43:02.450Z,16.61
2022-09-15T01:46:18.323Z,16.64
2022-09-15T01:49:37.562Z,16.70
2022-09-15T01:52:53.382Z,16.71
2022-09-15T01:56:10.911Z,16.70
2022-09-15T01:59:24.395Z,16.71
2022-09-15T02:02:41.387Z,16.75
2022-09-15T02:05:58.693Z,16.75
2022-09-15T02:09:17.429Z,16.71
2022-09-15T02:12:34.538Z,16.69
2022-09-15T02:15:52.147Z,16.69
2022-09-15T02:19:13.880Z,16.69
2022-09-15T02:22:29.750Z,16.70
2022-09-15T02:25:46.001Z,16.66
2022-09-15T02:29:01.126Z,16.69
2022-09-15T02:32:16.283Z,16.70
2022-09-15T02:35:31.770Z,16.72
2022-09-15T02:38:49.084Z,16.72
2022-09-15T02:42:03.186Z,16.65
2022-09-15T02:45:18.519Z,16.64
2022-09-15T02:48:32.478Z,16.59
2022-09-15T02:51:46.977Z,16.59
2022-09-15T02:55:01.537Z,16.62
2022-09-15T02:58:16.086Z,16.60
2022-09-15T03:01:38.183Z,16.61
2022-09-15T03:04:51.715Z,16.60
2022-09-15T03:08:05.239Z,16.58
2022-09-15T03:11:19.930Z,16.57
2022-09-15T03:14:34.003Z,16.56
2022-09-15T03:17:49.179Z,16.53
2022-09-15T03:21:05.092Z,16.53
2022-09-15T03:24:20.010Z,16.56
2022-09-15T03:27:33.640Z,16.55
2022-09-15T03:30:48.705Z,16.59
2022-09-15T03:34:02.157Z,16.64
2022-09-15T03:37:15.751Z,16.68
2022-09-15T03:40:29.338Z,16.66
2022-09-15T03:43:43.561Z,16.66
2022-09-15T03:46:58.919Z,16.65
2022-09-15T03:50:15.077Z,16.66
2022-09-15T03:53:29.174Z,16.66
2022-09-15T03:56:42.897Z,16.63
2022-09-15T03:59:56.611Z,16.61
2022-09-15T04:03:10.191Z,16.64
2022-09-15T04:06:24.305Z,16.63
2022-09-15T04:09:37.882Z,16.63
2022-09-15T04:12:51.313Z,16.64
2022-09-15T04:16:09.641Z,16.62
2022-09-15T04:19:23.182Z,16.64
2022-09-15T04:22:52.828Z,16.62
2022-09-15T04:26:08.894Z,16.63
2022-09-15T04:29:23.940Z,16.66
2022-09-15T04:32:37.674Z,16.71
2022-09-15T04:35:51.198Z,16.71
2022-09-15T04:39:06.039Z,16.74
2022-09-15T04:42:21.271Z,16.77
2022-09-15T04:45:34.682Z,16.77
2022-09-15T04:48:49.331Z,16.77
2022-09-15T04:52:04.763Z,16.75
2022-09-15T04:55:19.375Z,16.75
2022-09-15T04:58:33.319Z,16.78
2022-09-15T05:01:47.033Z,16.79
2022-09-15T05:05:00.549Z,16.80
2022-09-15T05:08:14.228Z,16.86
2022-09-15T05:11:31.603Z,16.88
2022-09-15T05:14:45.266Z,16.93
2022-09-15T05:17:58.820Z,16.96
2022-09-15T05:21:14.085Z,17.02
2022-09-15T05:24:27.821Z,17.07
2022-09-15T05:27:41.745Z,17.10
2022-09-15T05:30:55.347Z,17.13
2022-09-15T05:34:10.956Z,17.19
2022-09-15T05:37:24.702Z,17.16
2022-09-15T05:40:40.198Z,17.17
2022-09-15T05:43:55.790Z,17.20
2022-09-15T05:47:09.820Z,17.22
2022-09-15T05:50:23.382Z,17.25
2022-09-15T05:53:37.146Z,17.28
2022-09-15T05:56:51.964Z,17.33
2022-09-15T06:00:05.671Z,17.40
2022-09-15T06:03:30.032Z,17.45
2022-09-15T06:06:40.451Z,17.49
2022-09-15T06:09:53.849Z,17.52
2022-09-15T06:13:07.465Z,17.55
2022-09-15T06:16:23.262Z,17.56
2022-09-15T06:19:38.154Z,17.61
2022-09-15T06:22:51.861Z,17.64
2022-09-15T06:26:17.277Z,17.66
2022-09-15T06:29:32.297Z,17.68
2022-09-15T06:32:48.204Z,17.69
2022-09-15T06:36:01.384Z,17.69
2022-09-15T06:39:15.255Z,17.72
2022-09-15T06:42:28.707Z,17.74
2022-09-15T06:45:43.247Z,17.74
2022-09-15T06:48:57.056Z,17.76
2022-09-15T06:52:11.432Z,17.78
2022-09-15T06:55:25.278Z,17.79
2022-09-15T06:58:39.121Z,17.80
2022-09-15T07:01:55.900Z,17.79
2022-09-15T07:05:11.496Z,17.80
2022-09-15T07:08:24.988Z,17.78
2022-09-15T07:11:38.985Z,17.77
2022-09-15T07:14:52.500Z,17.78
2022-09-15T07:18:06.050Z,17.78
2022-09-15T07:21:20.609Z,17.75
2022-09-15T07:24:35.254Z,17.72
2022-09-15T07:27:48.707Z,17.74
2022-09-15T07:31:02.113Z,17.84
2022-09-15T07:34:15.577Z,17.86
2022-09-15T07:37:29.151Z,17.85
2022-09-15T07:40:43.022Z,17.89
2022-09-15T07:43:58.235Z,17.92
2022-09-15T07:47:12.736Z,17.93
2022-09-15T07:50:26.223Z,17.96
2022-09-15T07:53:41.007Z,17.96
2022-09-15T07:56:54.441Z,17.95
2022-09-15T08:00:09.047Z,17.85
2022-09-15T08:03:24.559Z,17.53
2022-09-15T08:06:38.167Z,17.39
2022-09-15T08:09:51.624Z,17.17
2022-09-15T08:13:05.688Z,17.10
2022-09-15T08:16:21.526Z,17.07
2022-09-15T08:19:35.642Z,16.94
2022-09-15T08:22:49.327Z,16.78
2022-09-15T08:26:02.973Z,16.65
2022-09-15T08:29:16.466Z,16.60
2022-09-15T08:32:29.991Z,16.57
2022-09-15T08:35:43.856Z,16.55
2022-09-15T08:39:01.166Z,16.50
2022-09-15T08:42:21.028Z,16.46
2022-09-15T08:45:37.826Z,16.45
2022-09-15T08:48:56.947Z,16.48
2022-09-15T08:52:17.129Z,16.52
2022-09-15T08:55:35.140Z,16.52
2022-09-15T08:58:49.220Z,16.54
2022-09-15T09:02:13.094Z,16.55
2022-09-15T09:05:42.328Z,16.57
2022-09-15T09:09:20.133Z,16.69
2022-09-15T09:12:41.626Z,16.78
2022-09-15T09:16:02.766Z,16.84
2022-09-15T09:19:37.006Z,16.90
2022-09-15T09:22:52.272Z,17.00
2022-09-15T09:26:10.445Z,17.06
2022-09-15T09:29:24.837Z,17.18
2022-09-15T09:32:45.995Z,17.27
2022-09-15T09:36:00.115Z,17.32
2022-09-15T09:39:14.836Z,17.39
2022-09-15T09:47:23.707Z,17.52
2022-09-15T09:52:09.626Z,17.56
2022-09-15T09:55:38.056Z,17.61
2022-09-15T09:58:52.663Z,17.67
2022-09-15T10:02:25.011Z,17.74
2022-09-15T10:05:38.553Z,17.75
2022-09-15T10:09:05.293Z,17.75
2022-09-15T10:12:28.020Z,17.79
2022-09-15T10:15:46.628Z,17.77
2022-09-15T10:19:01.873Z,17.77
2022-09-15T10:22:15.564Z,17.77
2022-09-15T10:29:46.894Z,17.89
2022-09-15T10:33:00.629Z,17.98
2022-09-15T10:36:18.795Z,18.13
2022-09-15T10:39:37.026Z,18.18
2022-09-15T10:42:57.907Z,18.25
2022-09-15T10:46:15.683Z,18.24
2022-09-15T10:49:50.032Z,18.31
2022-09-15T10:53:12.414Z,18.40
2022-09-15T10:56:32.097Z,18.53
2022-09-15T10:59:53.868Z,18.59
2022-09-15T11:03:30.156Z,18.61
2022-09-15T11:06:47.131Z,18.63
2022-09-15T11:10:05.411Z,18.68
2022-09-15T11:13:23.929Z,18.65
2022-09-15T11:16:44.727Z,18.68
2022-09-15T11:20:10.101Z,18.71
2022-09-15T11:23:28.784Z,18.70
2022-09-15T11:26:45.571Z,18.71
2022-09-15T11:30:18.340Z,18.71
2022-09-15T11:33:34.685Z,18.71
2022-09-15T11:36:50.490Z,18.68
2022-09-15T11:40:09.904Z,18.68
2022-09-15T11:43:29.364Z,18.69
2022-09-15T11:46:54.586Z,18.74
2022-09-15T11:50:14.960Z,18.74
2022-09-15T11:53:33.450Z,18.79
2022-09-15T11:56:50.618Z,18.84
2022-09-15T12:00:06.114Z,18.90
2022-09-15T12:03:25.657Z,18.98
2022-09-15T12:06:45.901Z,19.12
2022-09-15T12:09:59.463Z,19.19
2022-09-15T12:13:13.154Z,19.13
2022-09-15T12:16:27.469Z,19.14
2022-09-15T12:19:57.350Z,19.16
2022-09-15T12:23:18.215Z,19.14
2022-09-15T12:26:34.851Z,19.10
2022-09-15T12:29:54.802Z,19.02
2022-09-15T12:33:14.345Z,18.93
2022-09-15T12:36:47.152Z,18.86
2022-09-15T12:40:00.905Z,18.81
2022-09-15T12:43:28.568Z,18.74
2022-09-15T12:46:42.223Z,18.72
2022-09-15T12:49:58.171Z,18.73
2022-09-15T12:53:19.613Z,18.72
2022-09-15T12:56:34.823Z,18.71
2022-09-15T12:59:48.778Z,18.69
2022-09-15T13:03:03.084Z,18.71
2022-09-15T13:06:23.552Z,18.63
2022-09-15T13:09:40.985Z,18.57
2022-09-15T13:12:59.036Z,18.55
2022-09-15T13:16:15.239Z,18.56
2022-09-15T13:19:32.579Z,18.55
2022-09-15T13:22:49.852Z,18.56
2022-09-15T13:26:04.415Z,18.59
2022-09-15T13:29:20.240Z,18.56
2022-09-15T13:32:44.703Z,18.59
2022-09-15T13:36:13.763Z,18.59
2022-09-15T13:39:38.885Z,18.55
2022-09-15T13:43:00.121Z,18.51
2022-09-15T13:46:20.619Z,18.47
2022-09-15T13:49:45.799Z,18.33
2022-09-15T13:53:21.060Z,18.31
2022-09-15T13:56:37.359Z,18.36
2022-09-15T13:59:51.011Z,18.43
2022-09-15T14:03:07.437Z,18.47
2022-09-15T14:06:23.141Z,18.51
2022-09-15T14:09:39.608Z,18.45
2022-09-15T14:12:53.300Z,18.39
2022-09-15T14:16:12.438Z,18.30
2022-09-15T14:19:39.325Z,18.29
2022-09-15T14:22:55.274Z,18.28
2022-09-15T14:26:09.650Z,18.25
2022-09-15T14:29:26.548Z,18.19
2022-09-15T14:32:43.546Z,18.18
2022-09-15T14:35:56.994Z,18.18
2022-09-15T14:39:27.472Z,18.16
2022-09-15T14:42:45.242Z,18.06
2022-09-15T14:46:05.585Z,18.03
2022-09-15T14:49:21.780Z,17.98
2022-09-15T14:52:38.188Z,17.90
2022-09-15T14:55:56.127Z,17.87
2022-09-15T14:59:12.041Z,17.87
2022-09-15T15:02:29.476Z,17.84
2022-09-15T15:05:45.863Z,17.82
2022-09-15T15:09:03.088Z,17.84
2022-09-15T15:12:22.277Z,17.85
2022-09-15T15:15:36.423Z,17.86
2022-09-15T15:18:52.088Z,17.82
2022-09-15T15:22:21.375Z,17.78
2022-09-15T15:25:37.907Z,17.74
2022-09-15T15:28:51.505Z,17.72
2022-09-15T15:32:15.497Z,17.70
2022-09-15T15:35:29.381Z,17.68
2022-09-15T15:38:47.503Z,17.71
2022-09-15T15:42:09.743Z,17.68
2022-09-15T15:45:31.103Z,17.62
2022-09-15T15:48:44.734Z,17.53
2022-09-15T15:52:01.808Z,17.49
2022-09-15T15:55:20.049Z,17.45
2022-09-15T15:58:36.086Z,17.50
2022-09-15T16:01:50.580Z,17.45
2022-09-15T16:05:04.483Z,17.36
2022-09-15T16:08:23.090Z,17.36
2022-09-15T16:11:36.722Z,17.38
2022-09-15T16:14:50.184Z,17.33
2022-09-15T16:18:04.577Z,17.40
2022-09-15T16:21:24.107Z,17.38
2022-09-15T16:24:40.410Z,17.40
2022-09-15T16:27:54.024Z,17.38
2022-09-15T16:31:07.944Z,17.33
2022-09-15T16:34:23.246Z,17.29
2022-09-15T16:37:36.793Z,17.31
2022-09-15T16:40:51.817Z,17.35
2022-09-15T16:44:05.604Z,17.33
2022-09-15T16:47:19.057Z,17.33
2022-09-15T16:50:33.448Z,17.31
2022-09-15T16:53:48.310Z,17.28
2022-09-15T16:57:05.067Z,17.19
2022-09-15T17:00:21.260Z,17.21
2022-09-15T17:03:35.529Z,17.22
2022-09-15T17:06:49.588Z,17.18
2022-09-15T17:10:04.183Z,17.12
2022-09-15T17:13:22.303Z,17.07
2022-09-15T17:16:36.943Z,17.02
2022-09-15T17:19:50.540Z,16.98
2022-09-15T17:23:04.134Z,17.01
2022-09-15T17:26:21.366Z,17.01
2022-09-15T17:29:37.444Z,16.98
2022-09-15T17:32:54.110Z,16.95
2022-09-15T17:36:11.544Z,16.92
2022-09-15T17:39:25.109Z,16.92
2022-09-15T17:42:39.007Z,16.93
2022-09-15T17:45:56.636Z,16.92
2022-09-15T17:49:10.613Z,16.87
2022-09-15T17:52:25.402Z,16.82
2022-09-15T17:55:40.377Z,16.84
2022-09-15T17:58:54.334Z,16.86
2022-09-15T18:02:08.327Z,16.85
2022-09-15T18:05:30.685Z,16.78
2022-09-15T18:08:44.581Z,16.74
2022-09-15T18:11:58.506Z,16.70
2022-09-15T18:15:15.912Z,16.69
2022-09-15T18:18:31.863Z,16.69
2022-09-15T18:21:45.700Z,16.69
2022-09-15T18:24:59.513Z,16.68
2022-09-15T18:28:13.241Z,16.67
2022-09-15T18:31:27.275Z,16.63
2022-09-15T18:34:43.808Z,16.55
2022-09-15T18:38:03.213Z,16.52
2022-09-15T18:41:18.386Z,16.47
2022-09-15T18:44:32.538Z,16.45
2022-09-15T18:47:47.305Z,16.41
2022-09-15T18:51:02.980Z,16.31
2022-09-15T18:54:16.829Z,16.30
2022-09-15T18:57:30.965Z,16.24
2022-09-15T19:00:44.834Z,16.22
2022-09-15T19:03:58.473Z,16.15
2022-09-15T19:07:12.436Z,16.10
2022-09-15T19:10:27.227Z,16.01
2022-09-15T19:13:41.008Z,15.90
2022-09-15T19:16:57.890Z,15.86
2022-09-15T19:20:11.819Z,15.67
2022-09-15T19:23:25.655Z,15.58
2022-09-15T19:26:39.270Z,15.50
2022-09-15T19:29:52.892Z,15.45
2022-09-15T19:33:06.483Z,15.39
2022-09-15T19:36:28.926Z,15.36
2022-09-15T19:39:36.101Z,15.35
2022-09-15T19:42:55.226Z,15.33
2022-09-15T19:46:13.572Z,15.39
2022-09-15T19:49:28.458Z,15.46
2022-09-15T19:52:42.224Z,15.47
2022-09-15T19:55:59.744Z,15.48
2022-09-15T19:59:13.737Z,15.41
2022-09-15T20:02:28.369Z,15.33
2022-09-15T20:05:43.104Z,15.34
2022-09-15T20:08:59.857Z,15.28
2022-09-15T20:12:15.385Z,15.33
2022-09-15T20:15:31.320Z,15.24
2022-09-15T20:18:50.897Z,15.25
2022-09-15T20:22:05.611Z,15.26
2022-09-15T20:25:20.158Z,15.27
2022-09-15T20:28:36.764Z,15.29
2022-09-15T20:31:51.366Z,15.19
2022-09-15T20:35:06.142Z,15.18
2022-09-15T20:38:20.675Z,15.22
2022-09-15T20:41:36.295Z,15.18
2022-09-15T20:44:50.898Z,15.25
2022-09-15T20:48:05.963Z,15.27
2022-09-15T20:51:22.964Z,15.27
2022-09-15T20:54:37.814Z,15.30
2022-09-15T20:57:52.005Z,15.31
2022-09-15T21:01:17.418Z,15.34
2022-09-15T21:04:31.333Z,15.33
2022-09-15T21:07:45.153Z,15.34
2022-09-15T21:11:00.098Z,15.35
2022-09-15T21:14:15.738Z,15.36
2022-09-15T21:17:29.685Z,15.34
2022-09-15T21:20:44.344Z,15.29
2022-09-15T21:24:01.989Z,15.28
2022-09-15T21:27:34.173Z,15.32
2022-09-15T21:30:49.567Z,15.28
2022-09-15T21:34:04.037Z,15.27
2022-09-15T21:37:17.979Z,15.28
2022-09-15T21:40:31.686Z,15.28
2022-09-15T21:43:48.164Z,15.22
2022-09-15T21:47:01.856Z,15.19
2022-09-15T21:50:22.111Z,15.12
2022-09-15T21:53:35.902Z,15.10
2022-09-15T21:56:49.577Z,15.07
2022-09-15T22:00:05.462Z,15.02
2022-09-15T22:03:18.618Z,15.00
2022-09-15T22:06:34.033Z,14.99
2022-09-15T22:09:47.687Z,14.96
2022-09-15T22:13:01.269Z,14.87
2022-09-15T22:16:17.362Z,14.82
2022-09-15T22:19:31.093Z,14.77
2022-09-15T22:22:45.079Z,14.74
2022-09-15T22:25:58.942Z,14.70
2022-09-15T22:29:13.235Z,14.70
2022-09-15T22:32:27.057Z,14.70
2022-09-15T22:35:40.893Z,14.66
2022-09-15T22:38:54.824Z,14.62
2022-09-15T22:42:08.648Z,14.66
2022-09-15T22:45:22.357Z,14.59
2022-09-15T22:48:39.684Z,14.51
2022-09-15T22:51:51.633Z,14.45
2022-09-15T22:55:05.227Z,14.42
2022-09-15T22:58:18.809Z,14.38
2022-09-15T23:01:34.742Z,14.39
2022-09-15T23:04:48.413Z,14.37
2022-09-15T23:08:02.029Z,14.39
2022-09-15T23:11:17.989Z,14.33
2022-09-15T23:14:31.714Z,14.27
2022-09-15T23:17:45.329Z,14.25
2022-09-15T23:21:05.763Z,14.25
2022-09-15T23:24:19.408Z,14.20
2022-09-15T23:27:33.020Z,14.13
2022-09-15T23:30:47.101Z,14.09
2022-09-15T23:34:00.769Z,14.03
2022-09-15T23:37:14.389Z,14.03
2022-09-15T23:40:30.081Z,13.99
2022-09-15T23:43:43.711Z,13.93
2022-09-15T23:46:57.499Z,13.89
2022-09-15T23:50:12.339Z,13.91
2022-09-15T23:53:26.218Z,13.96
2022-09-15T23:56:39.990Z,13.91
2022-09-15T23:59:53.514Z,13.89
